• Join FlightAware (Why Join?)
  • Login
  • US Flag 
07:49PM EDT


 

Airport Tracker/Info


-or-


 

Live Flight TrackerFlight Track Log ✈ EJA122 ✈ 04-Nov-2013 ✈ KBHM - KAUS

Flight Track Log - Related Links

Times and Time Zones

All times are in EST time to prevent confusion due to time zone crossing. See the EJA122 flight status page for this flight to view local times or setup timezone preferences in your user account.

Time Position Orientation Groundspeed Altitude Reporting Facility
EST Latitude Longitude Course Direction KTS MPH feet Rate Location/Type
12:27PM 33.5639 -86.7561 26° Northeast 154 177 1,200  Level Atlanta Center
12:28PM 33.6317 -86.7158 26° Northeast 216 249 5,000 2,520 Climbing Atlanta Center
12:29PM 33.6464 -86.7961 282° West 188 216 7,400 2,520 Climbing Atlanta Center
12:30PM 33.6444 -86.8908 269° West 223 257 10,100 2,400 Climbing Atlanta Center
12:31PM 33.6336 -86.9903 263° West 262 302 12,300 2,100 Climbing Atlanta Center
12:32PM 33.6250 -87.0900 264° West 291 335 14,400 1,800 Climbing Atlanta Center
12:33PM 33.6139 -87.1967 263° West 310 357 15,900 1,080 Climbing Atlanta Center
12:35PM 33.5953 -87.4144 264° West 343 395 17,700 960 Climbing Memphis Center
12:37PM 33.5797 -87.5597 263° West 384 442 19,200 1,020 Climbing Memphis Center
12:38PM 33.5697 -87.6722 264° West 363 418 20,200 1,020 Climbing Memphis Center
12:39PM 33.5594 -87.7822 264° West 349 402 21,300 1,020 Climbing Memphis Center
12:40PM 33.5472 -87.8922 262° West 344 396 22,300 1,020 Climbing Memphis Center
12:41PM 33.5367 -88.0047 264° West 344 396 23,400 1,020 Climbing Memphis Center
12:42PM 33.5242 -88.1169 262° West 344 396 24,400 900 Climbing Memphis Center
12:43PM 33.5197 -88.2194 267° West 344 396 25,200 840 Climbing Memphis Center
12:44PM 33.5050 -88.3269 261° West 344 396 26,100 900 Climbing Memphis Center
12:45PM 33.4961 -88.4392 265° West 344 396 27,000 840 Climbing Memphis Center
12:46PM 33.4664 -88.5469 252° West 344 396 27,800 780 Climbing Memphis Center
12:47PM 33.4031 -88.6428 232° Southwest 349 402 28,600 840 Climbing Memphis Center
12:48PM 33.3439 -88.7358 233° Southwest 355 409 29,500 900 Climbing Memphis Center
12:49PM 33.2803 -88.8314 231° Southwest 360 414 30,400 840 Climbing Memphis Center
12:50PM 33.2419 -88.9389 247° West 365 420 31,200 780 Climbing Memphis Center
12:51PM 33.2056 -89.0489 248° West 360 414 32,000 840 Climbing Memphis Center
12:52PM 33.1714 -89.1586 250° West 360 414 32,900 840 Climbing Memphis Center
12:53PM 33.1347 -89.2608 247° West 349 402 33,700 900 Climbing Memphis Center
12:54PM 33.0958 -89.3778 248° West 354 407 34,700 900 Climbing Memphis Center
12:55PM 33.0633 -89.4847 250° West 349 402 35,500 780 Climbing Memphis Center
12:56PM 33.0475 -89.5889 260° West 339 390 36,300 780 Climbing Memphis Center
12:57PM 33.0356 -89.6931 262° West 334 384 37,100 840 Climbing Memphis Center
12:58PM 33.0108 -89.8072 256° West 334 384 38,000 420 Climbing Memphis Center
12:59PM 33.0031 -89.9214 265° West 339 390 38,000  Level Memphis Center
01:00PM 32.9847 -90.0231 258° West 345 397 38,000  Level Memphis Center
01:01PM 32.9661 -90.1394 259° West 356 410 38,000  Level Memphis Center
01:02PM 32.9494 -90.2558 260° West 356 410 38,000  Level Memphis Center
01:03PM 32.9286 -90.3769 258° West 362 417 38,000  Level Memphis Center
01:04PM 32.9119 -90.4958 261° West 368 423 38,000  Level Memphis Center
01:05PM 32.8931 -90.6147 259° West 373 429 38,000  Level Memphis Center
01:06PM 32.8739 -90.7358 259° West 373 429 38,000  Level Memphis Center
01:07PM 32.8547 -90.8617 260° West 373 429 38,000  Level Memphis Center
01:08PM 32.8353 -90.9828 259° West 373 429 38,000  Level Memphis Center
01:10PM 32.7889 -91.2956 260° West 381 438 38,000  Level Fort Worth Center
01:11PM 32.7697 -91.4178 259° West 375 432 38,000  Level Fort Worth Center
01:12PM 32.7506 -91.5400 259° West 375 432 38,000  Level Fort Worth Center
01:13PM 32.7289 -91.6575 258° West 375 432 38,000  Level Fort Worth Center
01:14PM 32.7114 -91.7772 260° West 370 426 38,000  Level Fort Worth Center
01:15PM 32.6933 -91.8917 259° West 365 420 38,000  Level Fort Worth Center
01:16PM 32.6733 -92.0042 258° West 360 414 38,000  Level Fort Worth Center
01:17PM 32.6553 -92.1211 260° West 355 409 38,000  Level Fort Worth Center
01:18PM 32.6372 -92.2381 260° West 355 409 38,000  Level Fort Worth Center
01:19PM 32.6189 -92.3550 259° West 360 414 38,000  Level Fort Worth Center
01:20PM 32.5986 -92.4694 258° West 355 409 38,000  Level Fort Worth Center
01:21PM 32.5778 -92.5842 258° West 355 409 38,000  Level Fort Worth Center
01:22PM 32.5592 -92.6958 259° West 355 409 38,000  Level Fort Worth Center
01:23PM 32.5342 -92.8106 256° West 355 409 38,000  Level Fort Worth Center
01:24PM 32.5192 -92.9125 260° West 355 409 38,000  Level Fort Worth Center
01:25PM 32.4964 -93.0392 258° West 355 409 38,000  Level Fort Worth Center
01:26PM 32.4792 -93.1408 259° West 355 409 38,000  Level Fort Worth Center
01:27PM 32.4581 -93.2625 258° West 355 409 38,000  Level Fort Worth Center
01:28PM 32.4406 -93.3617 258° West 355 409 38,000  Level Fort Worth Center
01:29PM 32.4172 -93.4808 257° West 350 403 38,000  Level Fort Worth Center
01:30PM 32.4036 -93.5822 261° West 350 403 38,000  Level Fort Worth Center
01:31PM 32.4031 -93.7078 270° West 350 403 38,000  Level Fort Worth Center
01:32PM 32.4003 -93.8261 268° West 359 413 38,000  Level Fort Worth Center
01:33PM 32.4075 -93.9364 274° West 354 407 38,000  Level Fort Worth Center
01:34PM 32.4086 -94.0522 271° West 349 402 38,000  Level Fort Worth Center
01:35PM 32.4117 -94.1653 272° West 349 402 38,000  Level Fort Worth Center
01:36PM 32.4144 -94.2808 272° West 349 402 38,000  Level Fort Worth Center
01:37PM 32.4131 -94.3914 269° West 349 402 38,000  Level Fort Worth Center
01:38PM 32.4114 -94.5022 269° West 349 402 38,000  Level Fort Worth Center
01:39PM 32.4119 -94.6131 270° West 342 394 38,000 -300 Level Fort Worth Center
01:40PM 32.4083 -94.7311 268° West 347 399 37,500 -1,020 Descending Fort Worth Center
01:41PM 32.4044 -94.8469 268° West 352 405 36,000 -1,500 Descending Fort Worth Center
01:42PM 32.4006 -94.9725 268° West 365 420 34,500 -1,440 Descending Fort Worth Center
01:43PM 32.3942 -95.0811 266° West 370 426 33,200 -1,740 Descending Fort Worth Center
01:44PM 32.4028 -95.2061 275° West 375 432 31,100 -2,340 Descending Fort Worth Center
01:45PM 32.4194 -95.3289 279° West 375 432 28,600 -2,520 Descending Fort Worth Center
01:46PM 32.4403 -95.4589 281° West 394 453 26,100 -2,580 Descending Fort Worth Center
01:47PM 32.4569 -95.5939 278° West 407 468 23,500 -2,640 Descending Fort Worth Center
01:48PM 32.4778 -95.7264 281° West 413 475 20,900 -2,820 Descending Fort Worth Center
01:49PM 32.4983 -95.8664 280° West 401 461 17,900 -2,580 Descending Fort Worth Center
01:50PM 32.5164 -95.9869 280° West 390 449 15,800 -2,280 Descending Fort Worth Center
01:51PM 32.5300 -96.1000 278° West 361 415 13,400 -2,220 Descending Fort Worth Center
01:52PM 32.5481 -96.2131 281° West 351 404 11,400 -2,040 Descending Fort Worth Center
01:53PM 32.5592 -96.3092 278° West 320 368 9,400 -1,200 Descending Fort Worth Center
01:54PM 32.5956 -96.3900 298° West 285 328 9,000 -780 Descending Fort Worth Center
01:55PM 32.6400 -96.4686 304° West 278 320 7,900 -1,260 Descending Fort Worth Center
01:56PM 32.6883 -96.5397 309° West 284 327 6,500 -1,320 Descending Fort Worth Center
01:57PM 32.7492 -96.5933 323° Northwest 289 333 5,300 -900 Descending Fort Worth Center
01:58PM 32.8000 -96.6333 327° Northwest 287 330 5,000 -180 Descending Dallas / Fort Worth TRACON
01:59PM 32.8500 -96.7167 306° West 281 323 5,000 -120 Level Dallas / Fort Worth TRACON
02:00PM 32.9000 -96.7833 312° West 280 322 4,800 -780 Descending Dallas / Fort Worth TRACON
02:01PM 32.9500 -96.8667 306° West 249 287 3,400 -1,200 Descending Dallas / Fort Worth TRACON
02:02PM 32.9833 -96.9167 308° West 202 232 2,400 -780 Descending Dallas / Fort Worth TRACON
02:03PM 32.9500 -96.9333 203° Southwest 155 178 2,000 -300 Descending Dallas / Fort Worth TRACON
02:04PM 32.9167 -96.9167 157° South 137 158 1,900 -360 Descending Dallas / Fort Worth TRACON
02:05PM 32.8833 -96.8833 140° Southeast 107 123 1,300 -660 Descending Dallas / Fort Worth TRACON
02:06PM 32.8667 -96.8667 140° Southeast 112 129 700 -720 Descending Dallas / Fort Worth TRACON
02:08PM 32.8333 -96.8500 301° West  Level FlightAware Approximate
02:15PM 32.2055 -97.0495 301° West  Level Estimated
02:16PM 32.1158 -97.0778 301° West  Level Estimated
02:17PM 32.0260 -97.1060 301° West  Level Estimated
02:18PM 31.9363 -97.1341 301° West  Level Estimated
02:19PM 31.8466 -97.1622 301° West  Level Estimated
02:20PM 31.7568 -97.1903 301° West  Level Estimated
02:21PM 31.6671 -97.2183 301° West  Level Estimated
02:22PM 31.5773 -97.2462 301° West  Level Estimated
02:23PM 31.4876 -97.2741 301° West  Level Estimated
02:24PM 31.3978 -97.3020 301° West  Level Estimated
02:25PM 31.3080 -97.3297 301° West  Level Estimated
02:26PM 31.2182 -97.3575 301° West  Level Estimated
02:27PM 31.1285 -97.3851 301° West  Level Estimated
02:28PM 31.0387 -97.4128 301° West  Level Estimated
02:29PM 30.9489 -97.4404 301° West  Level Estimated
02:30PM 30.8591 -97.4679 301° West  Level Estimated
02:31PM 30.7693 -97.4953 301° West  Level Estimated
02:32PM 30.6794 -97.5228 301° West  Level Estimated
02:33PM 30.5896 -97.5501 301° West  Level Estimated
02:34PM 30.4998 -97.5775 301° West  Level Estimated
02:35PM 30.4100 -97.6047 301° West  Level Estimated